createdAt,value
2023-05-06T00:00:27.396Z,0.00
2023-05-06T00:01:27.215Z,0.00
2023-05-06T00:02:27.244Z,0.00
2023-05-06T00:03:27.352Z,0.00
2023-05-06T00:04:27.192Z,0.00
2023-05-06T00:05:27.185Z,0.00
2023-05-06T00:06:27.228Z,0.00
2023-05-06T00:07:27.167Z,0.00
2023-05-06T00:08:27.118Z,0.00
2023-05-06T00:09:27.055Z,0.00
2023-05-06T00:10:27.042Z,0.00
2023-05-06T00:11:27.013Z,0.00
2023-05-06T00:12:27.073Z,0.00
2023-05-06T00:13:27.272Z,0.00
2023-05-06T00:14:26.957Z,0.00
2023-05-06T00:15:26.961Z,0.00
2023-05-06T00:16:26.898Z,0.00
2023-05-06T00:17:26.917Z,0.00
2023-05-06T00:18:26.945Z,0.00
2023-05-06T00:19:26.886Z,0.00
2023-05-06T00:20:26.819Z,0.00
2023-05-06T00:21:26.811Z,0.00
2023-05-06T00:22:26.799Z,0.00
2023-05-06T00:23:26.846Z,0.00
2023-05-06T00:24:26.749Z,0.00
2023-05-06T00:25:26.876Z,0.00
2023-05-06T00:26:26.727Z,0.00
2023-05-06T00:27:26.698Z,0.00
2023-05-06T00:28:26.676Z,0.00
2023-05-06T00:29:26.755Z,0.00
2023-05-06T00:30:26.724Z,0.00
2023-05-06T00:31:26.743Z,0.00
2023-05-06T00:32:26.759Z,0.00
2023-05-06T00:33:26.588Z,0.00
2023-05-06T00:34:26.562Z,0.00
2023-05-06T00:35:26.637Z,0.00
2023-05-06T00:36:26.611Z,0.00
2023-05-06T00:37:26.522Z,0.00
2023-05-06T00:38:26.616Z,0.00
2023-05-06T00:39:26.495Z,0.00
2023-05-06T00:40:26.487Z,0.00
2023-05-06T00:41:26.556Z,0.00
2023-05-06T00:42:26.479Z,0.00
2023-05-06T00:43:26.482Z,0.00
2023-05-06T00:44:26.447Z,0.00
2023-05-06T00:45:26.587Z,0.00
2023-05-06T00:46:26.509Z,0.00
2023-05-06T00:47:26.473Z,0.00
2023-05-06T00:48:26.397Z,0.00
2023-05-06T00:49:26.375Z,0.00
2023-05-06T00:50:26.417Z,0.00
2023-05-06T00:51:26.490Z,0.00
2023-05-06T00:52:26.433Z,0.00
2023-05-06T00:53:26.340Z,0.00
2023-05-06T00:54:26.328Z,0.00
2023-05-06T00:55:26.756Z,0.00
2023-05-06T00:56:26.364Z,0.00
2023-05-06T00:57:26.283Z,0.00
2023-05-06T00:58:26.392Z,0.00
2023-05-06T00:59:26.247Z,0.00
2023-05-06T01:00:26.271Z,0.00
2023-05-06T01:01:26.747Z,0.00
2023-05-06T01:02:33.267Z,0.00
2023-05-06T01:03:27.355Z,0.00
2023-05-06T01:04:26.400Z,0.00
2023-05-06T01:05:26.225Z,0.00
2023-05-06T01:06:26.155Z,0.00
2023-05-06T01:07:26.163Z,0.00
2023-05-06T01:08:26.150Z,0.00
2023-05-06T01:09:26.195Z,0.00
2023-05-06T01:10:26.255Z,0.00
2023-05-06T01:11:26.123Z,0.00
2023-05-06T01:12:26.098Z,0.00
2023-05-06T01:13:26.106Z,0.00
2023-05-06T01:14:26.074Z,0.00
2023-05-06T01:15:26.140Z,0.00
2023-05-06T01:16:26.145Z,0.00
2023-05-06T01:17:26.117Z,0.00
2023-05-06T01:18:26.047Z,0.00
2023-05-06T01:19:26.046Z,0.00
2023-05-06T01:20:26.029Z,0.00
2023-05-06T01:21:26.096Z,0.00
2023-05-06T01:22:26.024Z,0.00
2023-05-06T01:23:26.172Z,0.00
2023-05-06T01:24:25.987Z,0.00
2023-05-06T01:25:25.983Z,0.00
2023-05-06T01:26:25.972Z,0.00
2023-05-06T01:27:25.931Z,0.00
2023-05-06T01:28:25.910Z,0.00
2023-05-06T01:29:26.081Z,0.00
2023-05-06T01:30:25.951Z,0.00
2023-05-06T01:31:25.945Z,0.00
2023-05-06T01:32:25.898Z,0.00
2023-05-06T01:33:25.943Z,0.00
2023-05-06T01:34:25.865Z,0.00
2023-05-06T01:35:26.004Z,0.00
2023-05-06T01:36:25.809Z,0.00
2023-05-06T01:37:25.792Z,0.00
2023-05-06T01:38:25.782Z,0.00
2023-05-06T01:39:25.871Z,0.00
2023-05-06T01:40:25.759Z,0.00
2023-05-06T01:41:25.840Z,0.00
2023-05-06T01:42:25.764Z,0.00
2023-05-06T01:43:25.745Z,0.00
2023-05-06T01:44:25.781Z,0.00
2023-05-06T01:45:25.799Z,0.00
2023-05-06T01:46:25.764Z,0.00
2023-05-06T01:47:25.929Z,0.00
2023-05-06T01:48:25.749Z,0.00
2023-05-06T01:49:25.789Z,0.00
2023-05-06T01:50:25.726Z,0.00
2023-05-06T01:51:25.649Z,0.00
2023-05-06T01:52:25.644Z,0.00
2023-05-06T01:53:25.628Z,0.00
2023-05-06T01:54:25.607Z,0.00
2023-05-06T01:55:25.644Z,0.00
2023-05-06T01:56:25.756Z,0.00
2023-05-06T01:57:25.591Z,0.00
2023-05-06T01:58:25.602Z,0.00
2023-05-06T01:59:25.594Z,0.00
2023-05-06T02:00:25.581Z,0.00
2023-05-06T02:01:25.653Z,0.00
2023-05-06T02:02:25.657Z,0.00
2023-05-06T02:03:25.658Z,0.00
2023-05-06T02:04:25.543Z,0.00
2023-05-06T02:05:25.631Z,0.00
2023-05-06T02:06:25.579Z,0.00
2023-05-06T02:07:25.508Z,0.00
2023-05-06T02:08:25.546Z,0.00
2023-05-06T02:09:25.553Z,0.00
2023-05-06T02:10:25.702Z,0.00
2023-05-06T02:11:25.594Z,0.00
2023-05-06T02:12:25.509Z,0.00
2023-05-06T02:13:25.530Z,0.00
2023-05-06T02:14:25.514Z,0.00
2023-05-06T02:15:25.498Z,0.00
2023-05-06T02:16:25.610Z,0.00
2023-05-06T02:17:25.536Z,0.00
2023-05-06T02:18:25.548Z,0.00
2023-05-06T02:19:25.538Z,0.00
2023-05-06T02:20:25.540Z,0.00
2023-05-06T02:21:25.631Z,0.00
2023-05-06T02:22:25.659Z,0.00
2023-05-06T02:23:25.519Z,0.00
2023-05-06T02:24:25.477Z,0.00
2023-05-06T02:25:25.471Z,0.00
2023-05-06T02:26:25.591Z,0.00
2023-05-06T02:27:25.489Z,0.00
2023-05-06T02:28:25.585Z,0.00
2023-05-06T02:29:25.463Z,0.00
2023-05-06T02:30:25.469Z,0.00
2023-05-06T02:31:25.545Z,0.00
2023-05-06T02:32:25.463Z,0.00
2023-05-06T02:33:25.551Z,0.00
2023-05-06T02:34:25.489Z,0.00
2023-05-06T02:35:25.417Z,0.00
2023-05-06T02:36:25.462Z,0.00
2023-05-06T02:37:25.499Z,0.00
2023-05-06T02:38:25.404Z,0.00
2023-05-06T02:39:25.509Z,0.00
2023-05-06T02:40:25.369Z,0.00
2023-05-06T02:41:25.440Z,0.00
2023-05-06T02:42:25.408Z,0.00
2023-05-06T02:43:25.374Z,0.00
2023-05-06T02:44:25.358Z,0.00
2023-05-06T02:45:25.364Z,0.00
2023-05-06T02:46:25.489Z,0.00
2023-05-06T02:47:25.510Z,0.00
2023-05-06T02:48:25.362Z,0.00
2023-05-06T02:49:25.488Z,0.00
2023-05-06T02:50:25.482Z,0.00
2023-05-06T02:51:25.358Z,0.00
2023-05-06T02:52:25.438Z,0.00
2023-05-06T02:53:25.489Z,0.00
2023-05-06T02:54:25.422Z,0.00
2023-05-06T02:55:25.329Z,0.00
2023-05-06T02:56:25.327Z,0.00
2023-05-06T02:57:25.389Z,0.00
2023-05-06T02:58:25.482Z,0.00
2023-05-06T02:59:25.355Z,0.00
2023-05-06T03:00:25.329Z,0.00
2023-05-06T03:01:25.327Z,0.00
2023-05-06T03:02:25.388Z,0.00
2023-05-06T03:03:25.309Z,0.00
2023-05-06T03:04:26.274Z,0.00
2023-05-06T03:05:25.740Z,0.00
2023-05-06T03:06:25.376Z,0.00
2023-05-06T03:07:25.376Z,0.00
2023-05-06T03:08:25.403Z,0.00
2023-05-06T03:09:25.436Z,0.00
2023-05-06T03:10:25.988Z,0.00
2023-05-06T03:11:25.312Z,0.00
2023-05-06T03:12:26.849Z,0.00
2023-05-06T03:13:25.400Z,0.00
2023-05-06T03:14:25.377Z,0.00
2023-05-06T03:15:25.532Z,4.00
2023-05-06T03:16:25.406Z,4.00
2023-05-06T03:17:25.465Z,4.00
2023-05-06T03:18:25.378Z,4.00
2023-05-06T03:19:25.342Z,4.00
2023-05-06T03:20:25.373Z,4.00
2023-05-06T03:21:25.441Z,4.00
2023-05-06T03:22:25.390Z,4.00
2023-05-06T03:23:25.373Z,4.00
2023-05-06T03:24:25.358Z,8.00
2023-05-06T03:25:25.438Z,8.00
2023-05-06T03:26:25.394Z,8.00
2023-05-06T03:27:25.367Z,12.00
2023-05-06T03:28:25.451Z,12.00
2023-05-06T03:29:25.492Z,16.00
2023-05-06T03:30:25.375Z,20.00
2023-05-06T03:31:25.475Z,20.00
2023-05-06T03:32:25.414Z,20.00
2023-05-06T03:33:25.382Z,28.00
2023-05-06T03:34:25.348Z,28.00
2023-05-06T03:35:25.349Z,32.00
2023-05-06T03:36:25.499Z,36.00
2023-05-06T03:37:25.501Z,40.00
2023-05-06T03:38:25.395Z,44.00
2023-05-06T03:39:25.327Z,48.00
2023-05-06T03:40:25.343Z,56.00
2023-05-06T03:41:25.410Z,64.00
2023-05-06T03:42:25.328Z,76.00
2023-05-06T03:43:25.440Z,88.00
2023-05-06T03:44:25.403Z,96.00
2023-05-06T03:45:25.341Z,108.00
2023-05-06T03:46:25.403Z,116.00
2023-05-06T03:47:25.437Z,124.00
2023-05-06T03:48:25.349Z,132.00
2023-05-06T03:49:25.382Z,140.00
2023-05-06T03:50:25.346Z,148.00
2023-05-06T03:51:25.403Z,168.00
2023-05-06T03:52:25.323Z,188.00
2023-05-06T03:53:25.330Z,204.00
2023-05-06T03:54:25.398Z,224.00
2023-05-06T03:55:25.445Z,244.00
2023-05-06T03:56:25.315Z,264.00
2023-05-06T03:57:25.513Z,280.00
2023-05-06T03:58:25.329Z,292.00
2023-05-06T03:59:25.385Z,316.00
2023-05-06T04:00:25.340Z,340.00
2023-05-06T04:01:25.447Z,360.00
2023-05-06T04:02:25.594Z,380.00
2023-05-06T04:03:25.382Z,400.00
2023-05-06T04:04:25.396Z,416.00
2023-05-06T04:05:25.355Z,432.00
2023-05-06T04:06:25.344Z,448.00
2023-05-06T04:07:25.335Z,460.00
2023-05-06T04:08:25.427Z,460.00
2023-05-06T04:09:25.414Z,480.00
2023-05-06T04:10:25.434Z,516.00
2023-05-06T04:11:25.354Z,540.00
2023-05-06T04:12:25.376Z,580.00
2023-05-06T04:13:25.391Z,624.00
2023-05-06T04:14:25.491Z,660.00
2023-05-06T04:15:25.469Z,692.00
2023-05-06T04:16:25.769Z,728.00
2023-05-06T04:17:25.384Z,788.00
2023-05-06T04:18:25.407Z,820.00
2023-05-06T04:19:25.359Z,860.00
2023-05-06T04:20:25.454Z,904.00
2023-05-06T04:21:25.402Z,944.00
2023-05-06T04:22:25.429Z,1008.00
2023-05-06T04:23:25.490Z,1012.00
2023-05-06T04:24:25.773Z,1040.00
2023-05-06T04:25:25.578Z,1060.00
2023-05-06T04:26:25.357Z,1076.00
2023-05-06T04:27:25.368Z,1000.00
2023-05-06T04:28:25.355Z,1052.00
2023-05-06T04:29:25.571Z,1064.00
2023-05-06T04:30:25.526Z,1116.00
2023-05-06T04:31:25.501Z,1168.00
2023-05-06T04:32:25.740Z,1220.00
2023-05-06T04:33:25.361Z,1256.00
2023-05-06T04:34:25.374Z,1308.00
2023-05-06T04:35:25.408Z,1332.00
2023-05-06T04:36:25.357Z,1376.00
2023-05-06T04:37:25.452Z,1456.00
2023-05-06T04:38:25.361Z,1460.00
2023-05-06T04:39:25.346Z,1496.00
2023-05-06T04:40:25.338Z,1448.00
2023-05-06T04:41:25.360Z,1404.00
2023-05-06T04:42:25.421Z,1312.00
2023-05-06T04:43:25.400Z,1176.00
2023-05-06T04:44:25.475Z,1188.00
2023-05-06T04:45:25.491Z,1168.00
2023-05-06T04:46:25.419Z,1200.00
2023-05-06T04:47:25.441Z,1316.00
2023-05-06T04:48:25.341Z,1392.00
2023-05-06T04:49:25.342Z,1448.00
2023-05-06T04:50:25.317Z,1564.00
2023-05-06T04:51:25.331Z,1568.00
2023-05-06T04:52:25.449Z,1624.00
2023-05-06T04:53:25.384Z,1720.00
2023-05-06T04:54:25.386Z,1748.00
2023-05-06T04:55:25.385Z,1644.00
2023-05-06T04:56:25.341Z,1740.00
2023-05-06T04:57:25.393Z,1956.00
2023-05-06T04:58:25.329Z,2000.00
2023-05-06T04:59:25.310Z,1988.00
2023-05-06T05:00:25.299Z,2056.00
2023-05-06T05:01:25.480Z,2168.00
2023-05-06T05:02:25.478Z,2364.00
2023-05-06T05:03:25.517Z,2500.00
2023-05-06T05:04:25.370Z,2576.00
2023-05-06T05:05:25.307Z,2492.00
2023-05-06T05:06:25.288Z,2588.00
2023-05-06T05:07:25.346Z,2556.00
2023-05-06T05:08:25.317Z,2560.00
2023-05-06T05:09:25.316Z,2516.00
2023-05-06T05:10:25.253Z,2512.00
2023-05-06T05:11:25.258Z,2568.00
2023-05-06T05:12:25.237Z,2652.00
2023-05-06T05:13:25.327Z,2700.00
2023-05-06T05:14:25.228Z,2756.00
2023-05-06T05:15:25.288Z,2812.00
2023-05-06T05:16:25.286Z,2760.00
2023-05-06T05:17:25.443Z,2764.00
2023-05-06T05:18:25.241Z,2980.00
2023-05-06T05:19:25.213Z,3164.00
2023-05-06T05:20:25.259Z,3164.00
2023-05-06T05:21:25.169Z,3072.00
2023-05-06T05:22:25.263Z,3096.00
2023-05-06T05:23:25.240Z,2980.00
2023-05-06T05:24:25.152Z,3120.00
2023-05-06T05:25:25.567Z,3192.00
2023-05-06T05:26:25.127Z,3320.00
2023-05-06T05:27:25.187Z,3148.00
2023-05-06T05:28:25.102Z,3220.00
2023-05-06T05:29:25.079Z,3380.00
2023-05-06T05:30:25.127Z,3136.00
2023-05-06T05:31:25.118Z,3096.00
2023-05-06T05:32:25.111Z,3108.00
2023-05-06T05:33:25.104Z,3056.00
2023-05-06T05:34:25.025Z,3436.00
2023-05-06T05:35:25.067Z,3332.00
2023-05-06T05:36:25.036Z,3288.00
2023-05-06T05:37:25.002Z,3384.00
2023-05-06T05:38:24.981Z,3576.00
2023-05-06T05:39:24.959Z,3788.00
2023-05-06T05:40:24.905Z,3928.00
2023-05-06T05:41:24.872Z,3864.00
2023-05-06T05:42:24.940Z,3828.00
2023-05-06T05:43:24.887Z,3688.00
2023-05-06T05:44:24.813Z,3780.00
2023-05-06T05:45:24.793Z,3772.00
2023-05-06T05:46:24.802Z,3848.00
2023-05-06T05:47:24.835Z,3912.00
2023-05-06T05:48:24.750Z,4620.00
2023-05-06T05:49:24.925Z,4816.00
2023-05-06T05:50:24.894Z,4248.00
2023-05-06T05:51:24.675Z,4452.00
2023-05-06T05:52:24.680Z,4100.00
2023-05-06T05:53:24.653Z,4156.00
2023-05-06T05:54:24.642Z,4412.00
2023-05-06T05:55:24.586Z,5012.00
2023-05-06T05:56:24.615Z,4424.00
2023-05-06T05:57:24.697Z,4096.00
2023-05-06T05:58:24.518Z,4204.00
2023-05-06T05:59:24.482Z,4108.00
2023-05-06T06:00:24.449Z,4584.00
2023-05-06T06:01:24.630Z,3376.00
2023-05-06T06:02:24.504Z,3772.00
2023-05-06T06:03:24.499Z,4604.00
2023-05-06T06:04:24.430Z,5040.00
2023-05-06T06:05:24.303Z,5328.00
2023-05-06T06:06:24.286Z,4816.00
2023-05-06T06:07:24.353Z,5336.00
2023-05-06T06:08:24.218Z,4984.00
2023-05-06T06:09:24.290Z,4756.00
2023-05-06T06:10:24.225Z,4672.00
2023-05-06T06:11:24.588Z,4508.00
2023-05-06T06:12:24.136Z,4592.00
2023-05-06T06:13:25.310Z,4652.00
2023-05-06T06:14:24.069Z,4680.00
2023-05-06T06:15:24.028Z,5488.00
2023-05-06T06:16:24.051Z,4728.00
2023-05-06T06:17:24.113Z,4852.00
2023-05-06T06:18:23.903Z,4628.00
2023-05-06T06:19:23.854Z,4744.00
2023-05-06T06:20:23.822Z,4472.00
2023-05-06T06:21:23.988Z,4608.00
2023-05-06T06:22:23.962Z,5364.00
2023-05-06T06:23:23.708Z,5060.00
2023-05-06T06:24:23.699Z,4632.00
2023-05-06T06:25:23.655Z,4720.00
2023-05-06T06:26:23.676Z,4800.00
2023-05-06T06:27:23.578Z,4540.00
2023-05-06T06:28:23.565Z,4716.00
2023-05-06T06:29:23.628Z,4616.00
2023-05-06T06:30:23.528Z,4764.00
2023-05-06T06:31:23.521Z,5388.00
2023-05-06T06:32:23.456Z,5520.00
2023-05-06T06:33:24.130Z,5512.00
2023-05-06T06:34:23.312Z,5472.00
2023-05-06T06:35:23.323Z,5228.00
2023-05-06T06:36:23.264Z,5136.00
2023-05-06T06:37:23.512Z,4840.00
2023-05-06T06:38:23.262Z,5264.00
2023-05-06T06:39:23.158Z,5200.00
2023-05-06T06:40:23.086Z,5216.00
2023-05-06T06:41:23.022Z,5076.00
2023-05-06T06:42:22.994Z,5460.00
2023-05-06T06:43:23.097Z,5376.00
2023-05-06T06:44:22.940Z,5184.00
2023-05-06T06:45:22.908Z,5096.00
2023-05-06T06:46:22.864Z,4824.00
2023-05-06T06:47:22.742Z,5444.00
2023-05-06T06:48:22.814Z,5436.00
2023-05-06T06:49:22.648Z,5552.00
2023-05-06T06:50:22.895Z,6140.00
2023-05-06T06:51:22.687Z,5976.00
2023-05-06T06:52:22.574Z,5888.00
2023-05-06T06:53:22.632Z,5316.00
2023-05-06T06:54:22.400Z,5484.00
2023-05-06T06:55:22.525Z,5284.00
2023-05-06T06:56:22.319Z,6316.00
2023-05-06T06:57:22.348Z,6216.00
2023-05-06T06:58:22.276Z,5372.00
2023-05-06T06:59:22.172Z,5516.00
2023-05-06T07:00:22.167Z,5592.00
2023-05-06T07:01:22.386Z,5628.00
2023-05-06T07:02:22.039Z,5592.00
2023-05-06T07:03:22.216Z,5852.00
2023-05-06T07:04:21.977Z,5408.00
2023-05-06T07:05:21.924Z,5968.00
2023-05-06T07:06:21.820Z,6308.00
2023-05-06T07:07:22.115Z,5472.00
2023-05-06T07:08:21.796Z,5916.00
2023-05-06T07:09:21.736Z,6096.00
2023-05-06T07:10:21.769Z,5220.00
2023-05-06T07:11:21.643Z,6496.00
2023-05-06T07:12:21.579Z,5824.00
2023-05-06T07:13:21.502Z,5464.00
2023-05-06T07:14:21.586Z,4760.00
2023-05-06T07:15:21.363Z,4592.00
2023-05-06T07:16:21.346Z,4364.00
2023-05-06T07:17:21.535Z,3932.00
2023-05-06T07:18:21.210Z,4528.00
2023-05-06T07:19:21.133Z,3840.00
2023-05-06T07:20:21.086Z,4156.00
2023-05-06T07:21:21.076Z,4332.00
2023-05-06T07:22:20.983Z,3940.00
2023-05-06T07:23:20.946Z,4176.00
2023-05-06T07:24:21.182Z,4088.00
2023-05-06T07:25:20.959Z,4188.00
2023-05-06T07:26:20.770Z,4032.00
2023-05-06T07:27:20.742Z,5692.00
2023-05-06T07:28:20.697Z,5380.00
2023-05-06T07:29:21.099Z,4932.00
2023-05-06T07:30:23.026Z,5160.00
2023-05-06T07:31:20.671Z,5592.00
2023-05-06T07:32:20.503Z,5376.00
2023-05-06T07:33:20.400Z,5540.00
2023-05-06T07:34:20.343Z,5948.00
2023-05-06T07:35:20.308Z,6260.00
2023-05-06T07:36:21.325Z,6588.00
2023-05-06T07:37:20.142Z,6432.00
2023-05-06T07:38:20.608Z,5024.00
2023-05-06T07:39:20.045Z,4420.00
2023-05-06T07:40:19.946Z,4328.00
2023-05-06T07:41:19.855Z,4916.00
2023-05-06T07:42:19.789Z,4836.00
2023-05-06T07:43:19.736Z,5364.00
2023-05-06T07:44:19.660Z,5152.00
2023-05-06T07:45:19.740Z,4360.00
2023-05-06T07:46:19.505Z,5876.00
2023-05-06T07:47:19.403Z,6416.00
2023-05-06T07:48:20.164Z,5676.00
2023-05-06T07:49:19.273Z,6804.00
2023-05-06T07:50:19.147Z,5752.00
2023-05-06T07:51:19.176Z,5700.00
2023-05-06T07:52:19.057Z,5816.00
2023-05-06T07:53:18.941Z,5580.00
2023-05-06T07:54:18.872Z,5956.00
2023-05-06T07:55:18.793Z,5928.00
2023-05-06T07:56:18.705Z,4780.00
2023-05-06T07:57:18.729Z,6612.00
2023-05-06T07:58:18.671Z,7212.00
2023-05-06T07:59:18.534Z,5552.00
2023-05-06T08:00:18.503Z,4980.00
2023-05-06T08:01:18.337Z,4768.00
2023-05-06T08:02:18.301Z,4704.00
2023-05-06T08:03:18.322Z,4100.00
2023-05-06T08:04:18.190Z,3884.00
2023-05-06T08:05:18.193Z,4408.00
2023-05-06T08:06:17.949Z,4592.00
2023-05-06T08:07:17.866Z,4368.00
2023-05-06T08:08:17.804Z,4536.00
2023-05-06T08:09:23.082Z,4444.00
2023-05-06T08:10:18.727Z,4808.00
2023-05-06T08:11:19.361Z,4232.00
2023-05-06T08:12:17.575Z,4168.00
2023-05-06T08:13:17.494Z,3544.00
2023-05-06T08:14:17.348Z,3424.00
2023-05-06T08:15:17.333Z,3624.00
2023-05-06T08:16:17.249Z,4604.00
2023-05-06T08:17:17.266Z,4156.00
2023-05-06T08:18:22.317Z,4712.00
2023-05-06T08:19:18.041Z,3752.00
2023-05-06T08:20:16.955Z,3280.00
2023-05-06T08:21:16.911Z,4244.00
2023-05-06T08:22:16.810Z,3876.00
2023-05-06T08:23:16.688Z,3872.00
2023-05-06T08:24:16.643Z,4064.00
2023-05-06T08:25:16.515Z,3992.00
2023-05-06T08:26:16.442Z,4240.00
2023-05-06T08:27:16.366Z,4124.00
2023-05-06T08:28:16.351Z,4108.00
2023-05-06T08:29:16.329Z,4064.00
2023-05-06T08:30:16.247Z,3992.00
2023-05-06T08:31:16.153Z,3984.00
2023-05-06T08:32:16.099Z,3992.00
2023-05-06T08:33:15.967Z,3992.00
2023-05-06T08:34:15.892Z,3996.00
2023-05-06T08:35:15.794Z,4036.00
2023-05-06T08:36:15.889Z,3792.00
2023-05-06T08:37:15.666Z,4028.00
2023-05-06T08:38:16.320Z,4052.00
2023-05-06T08:39:15.697Z,4008.00
2023-05-06T08:40:15.478Z,3980.00
2023-05-06T08:41:15.327Z,4040.00
2023-05-06T08:42:15.339Z,4044.00
2023-05-06T08:43:15.209Z,4044.00
2023-05-06T08:44:15.113Z,4056.00
2023-05-06T08:45:15.138Z,4064.00
2023-05-06T08:46:15.065Z,4072.00
2023-05-06T08:47:15.012Z,4100.00
2023-05-06T08:48:14.836Z,4104.00
2023-05-06T08:49:14.761Z,4152.00
2023-05-06T08:50:14.709Z,4172.00
2023-05-06T08:51:14.653Z,4232.00
2023-05-06T08:52:14.512Z,4276.00
2023-05-06T08:53:14.555Z,4232.00
2023-05-06T08:54:14.351Z,4216.00
2023-05-06T08:55:14.417Z,4152.00
2023-05-06T08:56:14.255Z,4156.00
2023-05-06T08:57:14.143Z,3436.00
2023-05-06T08:58:14.045Z,4200.00
2023-05-06T08:59:13.989Z,4168.00
2023-05-06T09:00:13.898Z,4120.00
2023-05-06T09:01:13.998Z,4088.00
2023-05-06T09:02:13.925Z,4044.00
2023-05-06T09:03:13.837Z,4024.00
2023-05-06T09:04:13.575Z,4024.00
2023-05-06T09:05:13.717Z,4064.00
2023-05-06T09:06:13.525Z,4032.00
2023-05-06T09:07:13.305Z,4012.00
2023-05-06T09:08:13.274Z,3968.00
2023-05-06T09:09:13.248Z,3900.00
2023-05-06T09:10:13.054Z,3944.00
2023-05-06T09:11:13.005Z,3904.00
2023-05-06T09:12:12.858Z,3948.00
2023-05-06T09:13:12.902Z,3936.00
2023-05-06T09:14:12.779Z,3920.00
2023-05-06T09:15:13.038Z,3896.00
2023-05-06T09:16:12.533Z,3908.00
2023-05-06T09:17:12.461Z,3884.00
2023-05-06T09:18:12.472Z,3872.00
2023-05-06T09:19:12.307Z,3896.00
2023-05-06T09:20:12.319Z,3864.00
2023-05-06T09:21:12.100Z,3772.00
2023-05-06T09:22:12.114Z,3764.00
2023-05-06T09:23:11.990Z,3688.00
2023-05-06T09:24:12.268Z,3644.00
2023-05-06T09:25:12.191Z,3828.00
2023-05-06T09:26:11.752Z,3840.00
2023-05-06T09:27:13.267Z,3880.00
2023-05-06T09:28:11.560Z,3884.00
2023-05-06T09:29:11.510Z,3896.00
2023-05-06T09:30:11.313Z,3924.00
2023-05-06T09:31:11.246Z,3932.00
2023-05-06T09:32:11.183Z,3924.00
2023-05-06T09:33:11.255Z,3944.00
2023-05-06T09:34:11.002Z,3956.00
2023-05-06T09:35:11.054Z,3972.00
2023-05-06T09:36:10.731Z,3976.00
2023-05-06T09:37:10.805Z,4040.00
2023-05-06T09:38:10.587Z,4048.00
2023-05-06T09:39:10.438Z,4056.00
2023-05-06T09:40:10.456Z,4088.00
2023-05-06T09:41:10.252Z,4056.00
2023-05-06T09:42:10.313Z,3980.00
2023-05-06T09:43:10.061Z,4044.00
2023-05-06T09:44:09.960Z,4064.00
2023-05-06T09:45:10.333Z,3836.00
2023-05-06T09:46:09.869Z,3816.00
2023-05-06T09:47:09.682Z,3880.00
2023-05-06T09:48:09.785Z,3872.00
2023-05-06T09:49:09.871Z,3776.00
2023-05-06T09:50:09.591Z,3960.00
2023-05-06T09:51:09.336Z,3988.00
2023-05-06T09:52:09.181Z,3952.00
2023-05-06T09:53:09.080Z,3892.00
2023-05-06T09:54:09.051Z,3956.00
2023-05-06T09:55:09.153Z,3980.00
2023-05-06T09:56:09.160Z,3940.00
2023-05-06T09:57:08.704Z,3948.00
2023-05-06T09:58:08.616Z,3912.00
2023-05-06T09:59:08.614Z,3828.00
2023-05-06T10:00:08.494Z,3808.00
2023-05-06T10:01:08.400Z,3756.00
2023-05-06T10:02:08.307Z,3720.00
2023-05-06T10:03:08.326Z,3724.00
2023-05-06T10:04:08.386Z,3648.00
2023-05-06T10:05:08.305Z,3772.00
2023-05-06T10:06:08.213Z,3844.00
2023-05-06T10:07:07.823Z,3912.00
2023-05-06T10:08:07.641Z,3956.00
2023-05-06T10:09:07.598Z,3988.00
2023-05-06T10:10:07.447Z,3904.00
2023-05-06T10:11:07.459Z,4000.00
2023-05-06T10:12:07.233Z,4116.00
2023-05-06T10:13:07.189Z,4264.00
2023-05-06T10:14:07.118Z,4264.00
2023-05-06T10:15:07.017Z,4228.00
2023-05-06T10:16:07.689Z,4144.00
2023-05-06T10:17:07.080Z,4072.00
2023-05-06T10:18:06.682Z,4036.00
2023-05-06T10:19:06.769Z,4108.00
2023-05-06T10:20:06.468Z,4120.00
2023-05-06T10:21:06.446Z,4208.00
2023-05-06T10:22:06.259Z,4272.00
2023-05-06T10:23:06.254Z,4308.00
2023-05-06T10:24:06.130Z,4288.00
2023-05-06T10:25:05.925Z,4272.00
2023-05-06T10:26:05.836Z,4288.00
2023-05-06T10:27:05.801Z,4368.00
2023-05-06T10:28:06.657Z,4428.00
2023-05-06T10:29:05.506Z,4456.00
2023-05-06T10:30:05.407Z,4520.00
2023-05-06T10:31:05.445Z,4568.00
2023-05-06T10:32:05.298Z,4576.00
2023-05-06T10:33:05.239Z,4584.00
2023-05-06T10:34:05.076Z,4576.00
2023-05-06T10:35:04.888Z,4620.00
2023-05-06T10:36:04.825Z,4644.00
2023-05-06T10:37:04.903Z,4708.00
2023-05-06T10:38:04.563Z,4696.00
2023-05-06T10:39:04.547Z,4828.00
2023-05-06T10:40:04.376Z,4816.00
2023-05-06T10:41:04.322Z,4796.00
2023-05-06T10:42:04.154Z,4808.00
2023-05-06T10:43:04.052Z,4848.00
2023-05-06T10:44:04.115Z,4868.00
2023-05-06T10:45:03.887Z,4900.00
2023-05-06T10:46:03.978Z,4880.00
2023-05-06T10:47:03.710Z,4944.00
2023-05-06T10:48:03.564Z,4948.00
2023-05-06T10:49:03.401Z,5004.00
2023-05-06T10:50:03.302Z,5072.00
2023-05-06T10:51:03.261Z,5136.00
2023-05-06T10:52:03.082Z,5164.00
2023-05-06T10:53:03.046Z,5232.00
2023-05-06T10:54:02.869Z,5228.00
2023-05-06T10:55:02.763Z,5248.00
2023-05-06T10:56:02.610Z,5272.00
2023-05-06T10:57:02.587Z,5328.00
2023-05-06T10:58:02.380Z,5344.00
2023-05-06T10:59:02.291Z,5296.00
2023-05-06T11:00:02.214Z,5240.00
2023-05-06T11:01:02.042Z,5148.00
2023-05-06T11:02:01.995Z,4872.00
2023-05-06T11:03:01.861Z,5024.00
2023-05-06T11:04:01.802Z,4660.00
2023-05-06T11:05:01.608Z,5040.00
2023-05-06T11:06:01.529Z,4996.00
2023-05-06T11:07:01.316Z,4932.00
2023-05-06T11:08:01.207Z,4832.00
2023-05-06T11:09:01.185Z,4836.00
2023-05-06T11:10:01.044Z,4808.00
2023-05-06T11:11:00.888Z,4824.00
2023-05-06T11:12:00.750Z,4884.00
2023-05-06T11:13:00.755Z,4888.00
2023-05-06T11:14:00.535Z,4924.00
2023-05-06T11:15:00.457Z,4944.00
2023-05-06T11:16:00.329Z,4928.00
2023-05-06T11:17:00.336Z,4916.00
2023-05-06T11:18:00.160Z,4920.00
2023-05-06T11:18:59.897Z,4860.00
2023-05-06T11:19:59.768Z,4744.00
2023-05-06T11:20:59.980Z,4680.00
2023-05-06T11:21:59.560Z,4660.00
2023-05-06T11:22:59.417Z,4564.00
2023-05-06T11:23:59.311Z,4584.00
2023-05-06T11:24:59.222Z,4672.00
2023-05-06T11:25:59.460Z,4712.00
2023-05-06T11:26:58.953Z,4792.00
2023-05-06T11:27:58.982Z,4776.00
2023-05-06T11:28:58.661Z,4836.00
2023-05-06T11:29:58.615Z,4828.00
2023-05-06T11:30:58.506Z,4788.00
2023-05-06T11:31:58.271Z,4740.00
2023-05-06T11:32:58.175Z,4676.00
2023-05-06T11:33:58.049Z,4636.00
2023-05-06T11:34:58.000Z,4616.00
2023-05-06T11:35:57.924Z,4524.00
2023-05-06T11:36:57.654Z,4516.00
2023-05-06T11:37:57.596Z,4524.00
2023-05-06T11:38:57.418Z,4544.00
2023-05-06T11:39:57.312Z,4552.00
2023-05-06T11:40:57.406Z,4544.00
2023-05-06T11:41:57.250Z,4556.00
2023-05-06T11:42:56.917Z,4560.00
2023-05-06T11:43:56.776Z,4520.00
2023-05-06T11:44:56.729Z,4544.00
2023-05-06T11:45:56.602Z,4556.00
2023-05-06T11:46:56.451Z,4588.00
2023-05-06T11:47:56.295Z,4620.00
2023-05-06T11:48:56.158Z,4644.00
2023-05-06T11:49:56.017Z,4564.00
2023-05-06T11:50:55.872Z,3388.00
2023-05-06T11:51:55.795Z,4052.00
2023-05-06T11:52:55.614Z,4396.00
2023-05-06T11:53:55.485Z,4592.00
2023-05-06T11:54:55.434Z,4672.00
2023-05-06T11:55:55.241Z,4816.00
2023-05-06T11:56:55.249Z,5008.00
2023-05-06T11:57:56.008Z,5132.00
2023-05-06T11:58:54.987Z,5228.00
2023-05-06T11:59:54.715Z,5384.00
2023-05-06T12:00:54.630Z,5436.00
2023-05-06T12:01:54.508Z,5484.00
2023-05-06T12:02:54.418Z,5428.00
2023-05-06T12:03:54.354Z,5348.00
2023-05-06T12:04:54.193Z,5192.00
2023-05-06T12:05:54.052Z,5224.00
2023-05-06T12:06:53.847Z,5140.00
2023-05-06T12:07:53.664Z,5148.00
2023-05-06T12:08:53.535Z,5116.00
2023-05-06T12:09:53.518Z,5136.00
2023-05-06T12:10:53.262Z,5076.00
2023-05-06T12:11:53.222Z,5036.00
2023-05-06T12:12:53.142Z,5044.00
2023-05-06T12:13:52.862Z,4984.00
2023-05-06T12:14:52.757Z,5084.00
2023-05-06T12:15:52.736Z,5120.00
2023-05-06T12:16:54.766Z,5240.00
2023-05-06T12:17:52.416Z,5296.00
2023-05-06T12:18:52.291Z,4796.00
2023-05-06T12:19:52.118Z,5096.00
2023-05-06T12:20:51.947Z,5032.00
2023-05-06T12:21:51.906Z,5516.00
2023-05-06T12:22:52.897Z,5644.00
2023-05-06T12:23:51.619Z,5704.00
2023-05-06T12:24:51.375Z,5736.00
2023-05-06T12:25:51.237Z,5872.00